Time;durP1;ratioP1;P1;durP2;ratioP2;P2;SDS_P1;SDS_P2;PMS_P1;PMS_P2;Temp;Humidity;BMP_temperature;BMP_pressure;BME280_temperature;BME280_humidity;BME280_pressure;Samples;Min_cycle;Max_cycle;Signal;HPM_P1;HPM_P2
2024/01/31 00:01:50;;;;;;;272.37;117.87;;;;;;;;;;6182155;23;20005;-87
2024/01/31 00:04:15;;;;;;;223.60;102.83;;;;;;;;;;6183408;23;20421;-88
2024/01/31 00:06:41;;;;;;;257.23;119.50;;;;;;;;;;6183210;23;20008;-87
2024/01/31 00:09:07;;;;;;;223.50;110.90;;;;;;;;;;6179295;23;20012;-88
2024/01/31 00:11:33;;;;;;;170.17;83.67;;;;;;;;;;6192075;23;19997;-87
2024/01/31 00:13:59;;;;;;;154.87;74.87;;;;;;;;;;6165454;23;20005;-87
2024/01/31 00:16:25;;;;;;;124.60;62.53;;;;;;;;;;6191010;23;20199;-87
2024/01/31 00:18:50;;;;;;;115.73;56.23;;;;;;;;;;6190803;23;19993;-87
2024/01/31 00:21:18;;;;;;;124.60;62.30;;;;;;;;;;6191256;23;19997;-87
2024/01/31 00:23:44;;;;;;;113.67;60.30;;;;;;;;;;6187123;23;20429;-88
2024/01/31 00:26:09;;;;;;;125.77;68.73;;;;;;;;;;6193677;23;20027;-87
2024/01/31 00:28:34;;;;;;;122.80;66.07;;;;;;;;;;6188350;23;20032;-86
2024/01/31 00:31:00;;;;;;;133.83;69.43;;;;;;;;;;6188439;23;20028;-87
2024/01/31 00:33:25;;;;;;;132.50;68.83;;;;;;;;;;6188904;23;20009;-86
2024/01/31 00:36:04;;;;;;;126.20;65.47;;;;;;;;;;6188841;23;20055;-87
2024/01/31 00:38:29;;;;;;;128.18;66.53;;;;;;;;;;6192185;23;19996;-86
2024/01/31 00:40:56;;;;;;;149.70;72.63;;;;;;;;;;6193681;23;20004;-88
2024/01/31 00:43:21;;;;;;;152.43;78.83;;;;;;;;;;6188750;23;20016;-87
2024/01/31 00:45:47;;;;;;;151.93;72.03;;;;;;;;;;6188821;23;20540;-87
2024/01/31 00:48:12;;;;;;;143.73;69.33;;;;;;;;;;6188464;23;20080;-87
2024/01/31 00:50:37;;;;;;;154.33;77.47;;;;;;;;;;6189020;23;20077;-86
2024/01/31 00:53:03;;;;;;;144.90;72.50;;;;;;;;;;6186532;23;20012;-87
2024/01/31 00:55:28;;;;;;;131.17;61.37;;;;;;;;;;6187992;23;20001;-87
2024/01/31 00:57:54;;;;;;;154.13;82.07;;;;;;;;;;6187600;23;20665;-88
2024/01/31 01:00:21;;;;;;;167.97;86.47;;;;;;;;;;6187300;23;20588;-86
2024/01/31 01:02:46;;;;;;;161.20;81.20;;;;;;;;;;6186859;23;20077;-87
2024/01/31 01:05:12;;;;;;;141.03;62.33;;;;;;;;;;6187247;23;20005;-86
2024/01/31 01:07:40;;;;;;;241.43;99.27;;;;;;;;;;6162204;23;20028;-87
2024/01/31 01:10:06;;;;;;;159.13;75.57;;;;;;;;;;6187196;23;19997;-87
2024/01/31 01:12:32;;;;;;;261.40;112.43;;;;;;;;;;6189164;23;20004;-86
2024/01/31 01:14:57;;;;;;;366.10;140.30;;;;;;;;;;6189107;23;20001;-88
2024/01/31 01:17:23;;;;;;;631.27;235.33;;;;;;;;;;6187995;23;20011;-87
2024/01/31 01:19:48;;;;;;;136.67;67.83;;;;;;;;;;6189176;23;19993;-87
2024/01/31 01:22:15;;;;;;;121.43;60.00;;;;;;;;;;6185971;23;20614;-88
2024/01/31 01:24:42;;;;;;;206.77;80.10;;;;;;;;;;6186345;23;20043;-87
2024/01/31 01:27:07;;;;;;;210.50;86.07;;;;;;;;;;6183803;23;20584;-87
2024/01/31 01:29:32;;;;;;;323.50;124.17;;;;;;;;;;6159240;23;19997;-87
2024/01/31 01:31:57;;;;;;;188.07;78.87;;;;;;;;;;6160053;23;20048;-87
2024/01/31 01:34:23;;;;;;;125.60;59.87;;;;;;;;;;6187496;23;20025;-87
2024/01/31 01:36:48;;;;;;;164.83;80.33;;;;;;;;;;6166007;23;20078;-87
2024/01/31 01:39:13;;;;;;;161.00;77.30;;;;;;;;;;6160396;23;19997;-88
2024/01/31 01:41:39;;;;;;;154.50;77.70;;;;;;;;;;6159678;23;20368;-88
2024/01/31 01:44:04;;;;;;;130.60;63.70;;;;;;;;;;6158124;23;20109;-89
2024/01/31 01:46:31;;;;;;;99.77;45.07;;;;;;;;;;6159324;23;20001;-88
2024/01/31 01:48:57;;;;;;;93.73;44.83;;;;;;;;;;6158893;23;20001;-88
2024/01/31 01:51:23;;;;;;;102.83;56.03;;;;;;;;;;6158637;23;20091;-88
2024/01/31 01:53:49;;;;;;;101.80;53.23;;;;;;;;;;6182809;23;19997;-88
2024/01/31 01:56:15;;;;;;;92.03;46.20;;;;;;;;;;6182769;23;19997;-88
2024/01/31 01:58:41;;;;;;;103.80;48.77;;;;;;;;;;6184525;23;20436;-88
2024/01/31 02:01:10;;;;;;;84.43;42.40;;;;;;;;;;6183308;23;20444;-88
2024/01/31 02:03:36;;;;;;;90.22;46.03;;;;;;;;;;6183927;23;19997;-88
2024/01/31 02:06:01;;;;;;;102.77;49.47;;;;;;;;;;6184824;23;20036;-88
2024/01/31 02:08:27;;;;;;;95.37;48.00;;;;;;;;;;6185085;23;20004;-88
2024/01/31 02:10:53;;;;;;;87.80;44.53;;;;;;;;;;6185081;23;20043;-89
2024/01/31 02:13:19;;;;;;;85.47;44.50;;;;;;;;;;6183817;23;20016;-89
2024/01/31 02:15:57;;;;;;;71.73;38.93;;;;;;;;;;6185048;23;19997;-88
2024/01/31 02:18:23;;;;;;;71.63;36.97;;;;;;;;;;6183828;23;20008;-89
2024/01/31 02:20:59;;;;;;;71.23;37.17;;;;;;;;;;6185140;23;19997;-88
2024/01/31 02:23:24;;;;;;;70.87;37.70;;;;;;;;;;6185265;23;20132;-89
2024/01/31 02:25:49;;;;;;;74.67;38.37;;;;;;;;;;6188252;23;19989;-88
2024/01/31 02:28:14;;;;;;;63.10;32.00;;;;;;;;;;6192899;23;20004;-88
2024/01/31 02:30:40;;;;;;;62.10;31.33;;;;;;;;;;6188378;23;20048;-88
2024/01/31 02:33:05;;;;;;;93.63;44.37;;;;;;;;;;6183394;23;20001;-88
2024/01/31 02:35:32;;;;;;;59.57;31.00;;;;;;;;;;6182214;23;20011;-89
2024/01/31 02:37:57;;;;;;;59.97;32.07;;;;;;;;;;6183090;23;20572;-88
2024/01/31 02:40:23;;;;;;;55.30;28.37;;;;;;;;;;6183395;23;20058;-90
2024/01/31 02:42:49;;;;;;;49.23;24.50;;;;;;;;;;6184946;23;20586;-88
2024/01/31 02:45:16;;;;;;;50.90;27.27;;;;;;;;;;6182792;23;20017;-88
2024/01/31 02:47:42;;;;;;;57.03;29.93;;;;;;;;;;6181911;23;20059;-88
2024/01/31 02:50:07;;;;;;;77.60;38.97;;;;;;;;;;6182908;23;20001;-88
2024/01/31 02:52:32;;;;;;;80.93;39.40;;;;;;;;;;6182493;23;20005;-88
2024/01/31 02:54:58;;;;;;;57.33;28.80;;;;;;;;;;6182108;23;20008;-89
2024/01/31 02:57:24;;;;;;;72.47;36.60;;;;;;;;;;6182715;23;20098;-88
2024/01/31 02:59:49;;;;;;;46.23;25.13;;;;;;;;;;6183151;23;20040;-88
2024/01/31 03:02:15;;;;;;;66.67;34.03;;;;;;;;;;6182649;23;20003;-88
2024/01/31 03:04:41;;;;;;;77.80;37.50;;;;;;;;;;6182585;23;20028;-89
2024/01/31 03:07:06;;;;;;;75.10;36.03;;;;;;;;;;6181734;23;20005;-89
2024/01/31 03:09:31;;;;;;;165.30;75.30;;;;;;;;;;6157086;23;20100;-89
2024/01/31 03:11:57;;;;;;;63.27;34.87;;;;;;;;;;6183834;23;20455;-88
2024/01/31 03:14:25;;;;;;;63.50;33.73;;;;;;;;;;6185188;23;20001;-88
2024/01/31 03:16:50;;;;;;;100.93;43.73;;;;;;;;;;6189424;23;20475;-88
2024/01/31 03:19:15;;;;;;;78.73;40.07;;;;;;;;;;6189471;23;19989;-89
2024/01/31 03:21:41;;;;;;;143.50;55.70;;;;;;;;;;6187186;23;20005;-89
2024/01/31 03:24:06;;;;;;;67.30;35.73;;;;;;;;;;6182911;23;20001;-89
2024/01/31 03:26:31;;;;;;;94.67;42.00;;;;;;;;;;6184591;23;20008;-89
2024/01/31 03:28:58;;;;;;;97.57;47.77;;;;;;;;;;6182691;23;20000;-89
2024/01/31 03:31:25;;;;;;;96.03;45.47;;;;;;;;;;6183430;23;20104;-89
2024/01/31 03:33:50;;;;;;;76.37;36.80;;;;;;;;;;6181373;23;20000;-89
2024/01/31 03:36:16;;;;;;;72.20;36.17;;;;;;;;;;6156971;23;20060;-89
2024/01/31 03:38:41;;;;;;;81.03;42.77;;;;;;;;;;6181840;23;20005;-89
2024/01/31 03:41:06;;;;;;;67.87;36.20;;;;;;;;;;6157717;23;20544;-89
2024/01/31 03:43:33;;;;;;;65.13;37.73;;;;;;;;;;6183740;23;20024;-89
2024/01/31 03:46:00;;;;;;;62.07;33.63;;;;;;;;;;6182477;23;20028;-89
2024/01/31 03:48:26;;;;;;;61.57;33.23;;;;;;;;;;6182156;23;19993;-89
2024/01/31 03:50:52;;;;;;;66.10;33.63;;;;;;;;;;6182461;23;20005;-88
2024/01/31 03:53:17;;;;;;;78.03;40.23;;;;;;;;;;6182608;23;20001;-89
2024/01/31 03:55:50;;;;;;;186.73;78.23;;;;;;;;;;6181634;23;20001;-89
2024/01/31 03:58:15;;;;;;;130.60;58.57;;;;;;;;;;6182020;23;19997;-88
2024/01/31 04:00:41;;;;;;;114.90;49.03;;;;;;;;;;6181684;23;20625;-88
2024/01/31 04:03:07;;;;;;;74.20;38.03;;;;;;;;;;6183364;23;20051;-89
2024/01/31 04:05:32;;;;;;;125.17;54.30;;;;;;;;;;6182501;23;20091;-88
2024/01/31 04:07:58;;;;;;;126.60;56.47;;;;;;;;;;6187235;23;20008;-89
2024/01/31 04:10:23;;;;;;;115.77;53.73;;;;;;;;;;6191834;23;20001;-89
2024/01/31 04:12:49;;;;;;;95.33;45.93;;;;;;;;;;6182628;23;20001;-89
2024/01/31 04:15:14;;;;;;;88.60;39.87;;;;;;;;;;6180798;23;20001;-90
2024/01/31 04:17:41;;;;;;;108.63;46.63;;;;;;;;;;6181962;23;20005;-89
2024/01/31 04:20:07;;;;;;;128.57;57.63;;;;;;;;;;6183498;23;19993;-89
2024/01/31 04:22:33;;;;;;;99.57;47.60;;;;;;;;;;6157250;23;20016;-89
2024/01/31 04:24:59;;;;;;;99.77;46.73;;;;;;;;;;6181986;23;20001;-89
2024/01/31 04:27:24;;;;;;;142.37;60.73;;;;;;;;;;6181526;23;20033;-90
2024/01/31 04:29:49;;;;;;;127.63;55.47;;;;;;;;;;6180133;23;20028;-89
2024/01/31 04:32:15;;;;;;;316.00;132.80;;;;;;;;;;6180012;23;20509;-89
2024/01/31 04:34:40;;;;;;;315.67;126.43;;;;;;;;;;6155203;23;20001;-88
2024/01/31 04:37:06;;;;;;;369.70;153.77;;;;;;;;;;6154713;23;19988;-88
2024/01/31 04:39:32;;;;;;;353.83;148.13;;;;;;;;;;6155568;23;20037;-88
2024/01/31 04:41:59;;;;;;;262.87;109.07;;;;;;;;;;6154678;23;20001;-88
2024/01/31 04:44:24;;;;;;;333.97;137.83;;;;;;;;;;6155041;23;20044;-89
2024/01/31 04:46:49;;;;;;;355.07;150.57;;;;;;;;;;6154819;23;20499;-89
2024/01/31 04:49:15;;;;;;;220.20;104.13;;;;;;;;;;6155475;23;20001;-88
2024/01/31 04:51:41;;;;;;;122.03;58.90;;;;;;;;;;6154949;23;20008;-89
2024/01/31 04:54:06;;;;;;;77.53;40.73;;;;;;;;;;6156346;23;19997;-89
2024/01/31 04:56:31;;;;;;;87.40;42.00;;;;;;;;;;6154868;23;20085;-90
2024/01/31 04:58:57;;;;;;;85.97;45.00;;;;;;;;;;6159518;23;19993;-89
2024/01/31 05:01:22;;;;;;;94.97;46.77;;;;;;;;;;6177042;23;20001;-90
2024/01/31 05:03:47;;;;;;;108.00;54.00;;;;;;;;;;6182792;23;20012;-89
2024/01/31 05:06:13;;;;;;;238.27;121.10;;;;;;;;;;6156492;23;20005;-90
2024/01/31 05:08:39;;;;;;;353.53;147.93;;;;;;;;;;6180702;23;20055;-89
2024/01/31 05:11:04;;;;;;;680.23;321.00;;;;;;;;;;6182102;23;20194;-90
2024/01/31 05:13:30;;;;;;;433.30;184.93;;;;;;;;;;6182388;23;20043;-89
2024/01/31 05:15:55;;;;;;;327.20;123.87;;;;;;;;;;6181333;23;20253;-89
2024/01/31 05:18:20;;;;;;;218.63;92.03;;;;;;;;;;6182579;23;19997;-90
2024/01/31 05:20:46;;;;;;;197.63;103.27;;;;;;;;;;6152336;23;20001;-89
2024/01/31 05:23:12;;;;;;;256.30;127.97;;;;;;;;;;6128091;23;20218;-88
2024/01/31 05:25:40;;;;;;;192.57;104.40;;;;;;;;;;6127928;23;20019;-89
2024/01/31 05:28:06;;;;;;;125.17;66.43;;;;;;;;;;6127215;23;20053;-88
2024/01/31 05:30:31;;;;;;;174.47;87.97;;;;;;;;;;6128473;23;20017;-89
2024/01/31 05:32:56;;;;;;;175.47;76.80;;;;;;;;;;6127262;23;20006;-89
2024/01/31 05:35:24;;;;;;;193.50;87.20;;;;;;;;;;6127849;23;20005;-90
2024/01/31 05:37:49;;;;;;;257.17;111.90;;;;;;;;;;6148114;23;20029;-89
2024/01/31 05:40:16;;;;;;;167.07;76.83;;;;;;;;;;6151620;23;20002;-89
2024/01/31 05:42:44;;;;;;;233.57;104.13;;;;;;;;;;6152981;23;19997;-89
2024/01/31 05:45:16;;;;;;;330.00;139.47;;;;;;;;;;6154680;23;20116;-89
2024/01/31 05:47:41;;;;;;;282.30;117.73;;;;;;;;;;6131829;23;20029;-89
2024/01/31 05:50:07;;;;;;;377.73;120.80;;;;;;;;;;6134844;23;20017;-90
2024/01/31 05:52:32;;;;;;;197.83;77.33;;;;;;;;;;6179671;23;20491;-89
2024/01/31 05:54:58;;;;;;;216.27;87.40;;;;;;;;;;6184193;23;20001;-89
2024/01/31 05:57:24;;;;;;;327.97;107.63;;;;;;;;;;6181048;23;20036;-89
2024/01/31 05:59:49;;;;;;;128.43;56.37;;;;;;;;;;6171601;23;20480;-89
2024/01/31 06:02:14;;;;;;;405.57;144.67;;;;;;;;;;6180326;23;20001;-89
2024/01/31 06:04:40;;;;;;;171.27;79.53;;;;;;;;;;6180474;23;20016;-90
2024/01/31 06:07:05;;;;;;;138.63;61.53;;;;;;;;;;6181909;23;20009;-89
2024/01/31 06:09:31;;;;;;;117.13;60.00;;;;;;;;;;6181505;23;20610;-89
2024/01/31 06:11:56;;;;;;;110.27;55.50;;;;;;;;;;6182592;23;20001;-90
2024/01/31 06:14:22;;;;;;;116.60;55.70;;;;;;;;;;6181401;23;20572;-89
2024/01/31 06:16:48;;;;;;;109.57;52.57;;;;;;;;;;6179065;23;20132;-89
2024/01/31 06:19:13;;;;;;;341.87;141.37;;;;;;;;;;6180221;23;19993;-89
2024/01/31 06:21:38;;;;;;;547.03;222.70;;;;;;;;;;6181907;23;20039;-89
2024/01/31 06:24:04;;;;;;;145.97;60.93;;;;;;;;;;6179872;23;19997;-88
2024/01/31 06:26:32;;;;;;;129.10;55.77;;;;;;;;;;6177752;23;20035;-90
2024/01/31 06:28:58;;;;;;;187.38;89.75;;;;;;;;;;6179408;23;20048;-90
2024/01/31 06:31:28;;;;;;;280.40;124.30;;;;;;;;;;6178288;23;20092;-90
2024/01/31 06:33:54;;;;;;;184.03;85.53;;;;;;;;;;6178804;23;20051;-89
2024/01/31 06:36:20;;;;;;;182.70;88.87;;;;;;;;;;6181500;23;20420;-89
2024/01/31 06:38:46;;;;;;;143.43;73.10;;;;;;;;;;6190060;23;19997;-89
2024/01/31 06:41:15;;;;;;;166.83;82.77;;;;;;;;;;6184876;23;20421;-89
2024/01/31 06:43:40;;;;;;;164.70;88.32;;;;;;;;;;6178470;23;20024;-89
2024/01/31 06:46:07;;;;;;;160.33;81.53;;;;;;;;;;6179906;23;20048;-89
2024/01/31 06:48:32;;;;;;;131.93;65.03;;;;;;;;;;6177878;23;20009;-89
2024/01/31 06:50:58;;;;;;;360.57;156.10;;;;;;;;;;6177994;23;20001;-89
2024/01/31 06:53:23;;;;;;;146.00;71.33;;;;;;;;;;6180677;23;20081;-88
2024/01/31 06:55:48;;;;;;;151.57;77.90;;;;;;;;;;6177207;23;20266;-89
2024/01/31 06:58:14;;;;;;;173.13;89.90;;;;;;;;;;6178687;23;20075;-89
2024/01/31 07:00:39;;;;;;;217.23;111.10;;;;;;;;;;6176930;23;20036;-88
2024/01/31 07:03:04;;;;;;;167.37;88.90;;;;;;;;;;6176672;23;20005;-88
2024/01/31 07:05:30;;;;;;;161.67;86.63;;;;;;;;;;6179254;23;20334;-87
2024/01/31 07:07:55;;;;;;;135.10;70.60;;;;;;;;;;6186409;23;20301;-88
2024/01/31 07:10:22;;;;;;;127.40;64.70;;;;;;;;;;6180221;23;20008;-88
2024/01/31 07:12:47;;;;;;;127.83;69.23;;;;;;;;;;6178815;23;20075;-88
2024/01/31 07:15:14;;;;;;;116.07;62.17;;;;;;;;;;6181155;23;20005;-88
2024/01/31 07:17:39;;;;;;;101.93;56.60;;;;;;;;;;6183475;23;20005;-88
2024/01/31 07:20:05;;;;;;;92.07;49.07;;;;;;;;;;6183425;23;20530;-87
2024/01/31 07:22:30;;;;;;;128.10;73.77;;;;;;;;;;6185502;23;19993;-87
2024/01/31 07:24:57;;;;;;;94.10;51.67;;;;;;;;;;6185371;23;20008;-87
2024/01/31 07:27:22;;;;;;;87.00;46.50;;;;;;;;;;6180390;23;20011;-87
2024/01/31 07:29:48;;;;;;;132.43;75.77;;;;;;;;;;6181737;23;19997;-87
2024/01/31 07:32:13;;;;;;;93.87;51.77;;;;;;;;;;6178850;23;20380;-86
2024/01/31 07:34:39;;;;;;;91.37;50.00;;;;;;;;;;6178825;23;20024;-88
2024/01/31 07:37:05;;;;;;;96.43;51.60;;;;;;;;;;6180739;23;20001;-86
2024/01/31 07:39:30;;;;;;;180.63;89.33;;;;;;;;;;6180534;23;20004;-86
2024/01/31 07:41:56;;;;;;;73.07;43.80;;;;;;;;;;6178328;23;20005;-87
2024/01/31 07:44:21;;;;;;;81.83;49.80;;;;;;;;;;6181507;23;20172;-86
2024/01/31 07:46:46;;;;;;;76.13;44.27;;;;;;;;;;6178438;23;20088;-88
2024/01/31 07:49:12;;;;;;;86.80;46.33;;;;;;;;;;6178841;23;20001;-88
2024/01/31 07:51:41;;;;;;;82.37;49.83;;;;;;;;;;6177913;23;20005;-88
2024/01/31 07:54:06;;;;;;;90.18;50.83;;;;;;;;;;6178282;23;20003;-87
2024/01/31 07:56:32;;;;;;;87.30;50.28;;;;;;;;;;6177716;23;20433;-88
2024/01/31 07:58:57;;;;;;;84.55;49.53;;;;;;;;;;6178455;23;19993;-86
2024/01/31 08:01:23;;;;;;;140.15;75.50;;;;;;;;;;6180889;23;20059;-87
2024/01/31 08:03:49;;;;;;;85.32;51.30;;;;;;;;;;6177573;23;20076;-87
2024/01/31 08:06:14;;;;;;;95.40;56.67;;;;;;;;;;6178683;23;20297;-87
2024/01/31 08:08:42;;;;;;;99.07;57.13;;;;;;;;;;6153022;23;20352;-87
2024/01/31 08:11:07;;;;;;;116.05;69.35;;;;;;;;;;6177408;23;20041;-87
2024/01/31 08:13:34;;;;;;;93.88;58.58;;;;;;;;;;6179154;23;20001;-87
2024/01/31 08:15:59;;;;;;;106.55;67.20;;;;;;;;;;6179683;23;19997;-87
2024/01/31 08:18:24;;;;;;;102.15;69.85;;;;;;;;;;6178870;23;20487;-88
2024/01/31 08:20:49;;;;;;;76.00;48.67;;;;;;;;;;6178947;23;20079;-87
2024/01/31 08:23:15;;;;;;;79.20;52.97;;;;;;;;;;6177050;23;20001;-87
2024/01/31 08:25:40;;;;;;;68.88;53.08;;;;;;;;;;6176989;23;20001;-87
2024/01/31 08:28:05;;;;;;;55.35;41.10;;;;;;;;;;6178436;23;19997;-87
2024/01/31 08:30:31;;;;;;;49.03;35.50;;;;;;;;;;6176707;23;20389;-87
2024/01/31 08:32:57;;;;;;;38.25;29.17;;;;;;;;;;6179906;23;20001;-87
2024/01/31 08:35:22;;;;;;;39.20;28.85;;;;;;;;;;6179171;23;20147;-87
2024/01/31 08:37:47;;;;;;;168.80;88.63;;;;;;;;;;6180239;23;19997;-87
2024/01/31 08:40:14;;;;;;;90.28;57.25;;;;;;;;;;6178306;23;20290;-87
2024/01/31 08:42:40;;;;;;;56.70;37.00;;;;;;;;;;6178443;23;19997;-86
2024/01/31 08:45:08;;;;;;;136.98;79.60;;;;;;;;;;6178734;23;20071;-86
2024/01/31 08:47:33;;;;;;;49.75;34.03;;;;;;;;;;6180570;23;19997;-87
2024/01/31 08:49:59;;;;;;;30.83;22.98;;;;;;;;;;6178533;23;20005;-88
2024/01/31 08:52:24;;;;;;;46.88;31.08;;;;;;;;;;6178460;23;20015;-89
2024/01/31 08:54:50;;;;;;;26.75;19.63;;;;;;;;;;6178058;23;20031;-87
2024/01/31 08:57:15;;;;;;;30.25;22.40;;;;;;;;;;6178627;23;20095;-88
2024/01/31 08:59:41;;;;;;;26.83;18.52;;;;;;;;;;6179818;23;20414;-87
2024/01/31 09:02:07;;;;;;;27.92;22.30;;;;;;;;;;6178314;23;20762;-86
2024/01/31 09:04:33;;;;;;;42.53;30.90;;;;;;;;;;6180115;23;20001;-87
2024/01/31 09:06:58;;;;;;;83.95;41.28;;;;;;;;;;6178817;23;20055;-87
2024/01/31 09:09:23;;;;;;;98.20;80.18;;;;;;;;;;6179763;23;20344;-87
2024/01/31 09:11:49;;;;;;;66.28;49.72;;;;;;;;;;6178684;23;20328;-87
2024/01/31 09:14:14;;;;;;;115.47;67.32;;;;;;;;;;6179350;23;20004;-87
2024/01/31 09:16:39;;;;;;;109.93;66.90;;;;;;;;;;6180310;23;19997;-87
2024/01/31 09:19:05;;;;;;;69.63;37.90;;;;;;;;;;6178014;23;20020;-86
2024/01/31 09:21:30;;;;;;;78.07;58.03;;;;;;;;;;6178267;23;20010;-88
2024/01/31 09:23:56;;;;;;;91.32;54.00;;;;;;;;;;6177786;23;20490;-88
2024/01/31 09:26:22;;;;;;;86.63;51.17;;;;;;;;;;6180055;23;20005;-88
2024/01/31 09:28:47;;;;;;;66.05;39.47;;;;;;;;;;6178231;23;20005;-87
2024/01/31 09:31:22;;;;;;;35.72;26.85;;;;;;;;;;6178326;23;20044;-88
2024/01/31 09:33:49;;;;;;;23.88;17.55;;;;;;;;;;6177800;23;20345;-88
2024/01/31 09:36:14;;;;;;;62.47;35.17;;;;;;;;;;6178439;23;20068;-89
2024/01/31 09:38:39;;;;;;;73.45;46.00;;;;;;;;;;6180170;23;20028;-88
2024/01/31 09:41:05;;;;;;;59.03;39.10;;;;;;;;;;6179729;23;20452;-88
2024/01/31 09:43:30;;;;;;;30.60;22.80;;;;;;;;;;6179374;23;20020;-87
2024/01/31 09:45:56;;;;;;;209.57;97.72;;;;;;;;;;6175691;23;20000;-87
2024/01/31 09:48:22;;;;;;;33.25;23.35;;;;;;;;;;6179682;23;20325;-87
2024/01/31 09:50:48;;;;;;;144.30;65.88;;;;;;;;;;6177744;23;20004;-87
2024/01/31 09:53:14;;;;;;;196.38;92.90;;;;;;;;;;6180011;23;20022;-87
2024/01/31 09:55:41;;;;;;;36.25;26.50;;;;;;;;;;6179510;23;20005;-87
2024/01/31 09:58:06;;;;;;;27.02;24.10;;;;;;;;;;6178076;23;20001;-87
2024/01/31 10:00:32;;;;;;;14.20;12.00;;;;;;;;;;6178119;23;20079;-87
2024/01/31 10:02:57;;;;;;;21.52;18.15;;;;;;;;;;6178223;23;19997;-87
2024/01/31 10:05:23;;;;;;;23.17;18.65;;;;;;;;;;6179865;23;20657;-87
2024/01/31 10:07:48;;;;;;;18.92;14.48;;;;;;;;;;6178308;23;20006;-87
2024/01/31 10:10:13;;;;;;;32.53;23.58;;;;;;;;;;6177564;23;20028;-86
2024/01/31 10:12:39;;;;;;;52.03;38.40;;;;;;;;;;6179850;23;19993;-87
2024/01/31 10:15:07;;;;;;;90.72;65.35;;;;;;;;;;6178343;23;20005;-87
2024/01/31 10:17:34;;;;;;;74.57;37.63;;;;;;;;;;6179031;23;20005;-86
2024/01/31 10:20:02;;;;;;;31.25;20.63;;;;;;;;;;6179213;23;20698;-85
2024/01/31 10:22:28;;;;;;;31.65;20.92;;;;;;;;;;6177943;23;20050;-88
2024/01/31 10:24:55;;;;;;;37.85;25.67;;;;;;;;;;6179337;23;20001;-87
2024/01/31 10:27:21;;;;;;;23.90;18.95;;;;;;;;;;6177795;23;20012;-88
2024/01/31 10:29:47;;;;;;;86.57;59.05;;;;;;;;;;6177530;23;20436;-87
2024/01/31 10:32:15;;;;;;;82.95;55.40;;;;;;;;;;6177739;23;20009;-86
2024/01/31 10:34:41;;;;;;;25.17;18.58;;;;;;;;;;6177080;23;20009;-88
2024/01/31 10:37:06;;;;;;;28.05;17.55;;;;;;;;;;6178115;23;20051;-86
2024/01/31 10:39:32;;;;;;;31.77;21.58;;;;;;;;;;6176941;23;20001;-87
2024/01/31 10:41:59;;;;;;;59.35;40.67;;;;;;;;;;6177070;23;20008;-86
2024/01/31 10:44:24;;;;;;;80.78;57.55;;;;;;;;;;6178869;23;20337;-88
2024/01/31 10:46:51;;;;;;;59.33;43.03;;;;;;;;;;6177381;23;20001;-86
2024/01/31 10:49:16;;;;;;;19.83;14.60;;;;;;;;;;6177221;23;20082;-88
2024/01/31 10:51:53;;;;;;;53.95;37.85;;;;;;;;;;6178576;23;20009;-86
2024/01/31 10:54:21;;;;;;;12.50;10.00;;;;;;;;;;6179270;23;20008;-88
2024/01/31 10:56:48;;;;;;;11.75;9.43;;;;;;;;;;6177718;23;20005;-88
2024/01/31 10:59:13;;;;;;;14.43;11.02;;;;;;;;;;6177718;23;19997;-88
2024/01/31 11:01:48;;;;;;;11.35;9.63;;;;;;;;;;6177361;23;20073;-88
2024/01/31 11:04:13;;;;;;;12.10;10.82;;;;;;;;;;6179041;23;20005;-88
2024/01/31 11:06:42;;;;;;;25.25;16.77;;;;;;;;;;6177432;23;20012;-87
2024/01/31 11:09:28;;;;;;;4.90;4.45;;;;;;;;;;6179408;23;20340;-85
2024/01/31 11:12:03;;;;;;;10.10;8.98;;;;;;;;;;6178881;23;20063;-87
2024/01/31 11:14:29;;;;;;;21.33;15.88;;;;;;;;;;6177150;23;20139;-87
2024/01/31 11:17:05;;;;;;;85.25;46.63;;;;;;;;;;6178079;23;20008;-87
2024/01/31 11:19:31;;;;;;;28.73;20.33;;;;;;;;;;6177410;23;20341;-87
2024/01/31 11:21:57;;;;;;;24.23;14.52;;;;;;;;;;6179592;23;19997;-87
2024/01/31 11:24:23;;;;;;;18.40;14.43;;;;;;;;;;6178855;23;20001;-87
2024/01/31 11:26:49;;;;;;;11.50;8.40;;;;;;;;;;6176720;23;20008;-86
2024/01/31 11:29:15;;;;;;;14.60;13.10;;;;;;;;;;6178544;23;20004;-85
2024/01/31 11:31:41;;;;;;;21.25;16.38;;;;;;;;;;6176888;23;20011;-86
2024/01/31 11:34:06;;;;;;;10.70;9.40;;;;;;;;;;6176936;23;20001;-86
2024/01/31 11:36:31;;;;;;;12.48;9.13;;;;;;;;;;6205357;23;20008;-86
2024/01/31 11:38:57;;;;;;;10.52;8.52;;;;;;;;;;6204840;23;19993;-87
2024/01/31 11:41:22;;;;;;;11.73;7.43;;;;;;;;;;6179290;23;20011;-87
2024/01/31 11:43:48;;;;;;;12.25;6.05;;;;;;;;;;6205285;23;20012;-87
2024/01/31 11:46:14;;;;;;;7.18;6.30;;;;;;;;;;6180352;23;20067;-86
2024/01/31 11:48:41;;;;;;;9.00;7.57;;;;;;;;;;6205411;23;19996;-85
2024/01/31 11:51:07;;;;;;;9.90;8.05;;;;;;;;;;6179947;23;20007;-85
2024/01/31 11:53:33;;;;;;;9.02;7.90;;;;;;;;;;6205961;23;20079;-86
2024/01/31 11:55:59;;;;;;;10.50;7.35;;;;;;;;;;6181821;23;20373;-86
2024/01/31 11:58:24;;;;;;;6.40;5.10;;;;;;;;;;6206957;23;20417;-85
2024/01/31 12:00:50;;;;;;;6.18;5.22;;;;;;;;;;6206604;23;20503;-86
2024/01/31 12:03:15;;;;;;;7.85;5.50;;;;;;;;;;6205575;23;19993;-85
2024/01/31 12:05:40;;;;;;;4.95;4.45;;;;;;;;;;6180694;23;20001;-85
2024/01/31 12:08:06;;;;;;;6.72;4.55;;;;;;;;;;6178193;23;20001;-84
2024/01/31 12:10:32;;;;;;;4.20;3.50;;;;;;;;;;6180646;23;20012;-85
2024/01/31 12:13:00;;;;;;;3.40;3.10;;;;;;;;;;6179064;23;20430;-85
2024/01/31 12:15:26;;;;;;;4.78;4.30;;;;;;;;;;6179124;23;20033;-87
2024/01/31 12:17:52;;;;;;;3.80;3.40;;;;;;;;;;6180613;23;19993;-85
2024/01/31 12:20:17;;;;;;;10.65;9.60;;;;;;;;;;6178701;23;20047;-84
2024/01/31 12:22:44;;;;;;;4.25;3.85;;;;;;;;;;6178503;23;20057;-84
2024/01/31 12:25:10;;;;;;;3.65;3.33;;;;;;;;;;6178727;23;20001;-85
2024/01/31 12:27:35;;;;;;;2.85;2.60;;;;;;;;;;6206874;23;20011;-85
2024/01/31 12:30:01;;;;;;;4.22;3.85;;;;;;;;;;6206772;23;20001;-84
2024/01/31 12:32:26;;;;;;;5.32;4.82;;;;;;;;;;6207205;23;20001;-85
2024/01/31 12:34:52;;;;;;;6.45;5.80;;;;;;;;;;6207060;23;20008;-88
2024/01/31 12:37:18;;;;;;;12.75;9.25;;;;;;;;;;6182121;23;20460;-88
2024/01/31 12:39:43;;;;;;;5.32;4.53;;;;;;;;;;6207414;23;20411;-87
2024/01/31 12:42:09;;;;;;;9.23;6.72;;;;;;;;;;6181844;23;20007;-86
2024/01/31 12:44:34;;;;;;;8.25;6.78;;;;;;;;;;6181967;23;20111;-86
2024/01/31 12:47:05;;;;;;;8.90;7.80;;;;;;;;;;6206970;23;20359;-86
2024/01/31 12:49:32;;;;;;;11.27;9.57;;;;;;;;;;6182635;23;20448;-87
2024/01/31 12:51:58;;;;;;;7.33;4.83;;;;;;;;;;6182171;23;19997;-86
2024/01/31 12:54:23;;;;;;;3.70;3.30;;;;;;;;;;6207165;23;20295;-87
2024/01/31 12:56:48;;;;;;;4.68;4.28;;;;;;;;;;6206918;23;20000;-87
2024/01/31 12:59:14;;;;;;;5.40;4.22;;;;;;;;;;6188016;23;20048;-87
2024/01/31 13:01:39;;;;;;;4.45;3.47;;;;;;;;;;6177781;23;20492;-88
2024/01/31 13:04:04;;;;;;;84.63;67.63;;;;;;;;;;6179313;23;20005;-87
2024/01/31 13:06:30;;;;;;;11.35;10.27;;;;;;;;;;6178095;23;19997;-87
2024/01/31 13:08:55;;;;;;;3.90;3.17;;;;;;;;;;6178665;23;20087;-88
2024/01/31 13:11:22;;;;;;;4.50;4.10;;;;;;;;;;6178573;23;20475;-85
2024/01/31 13:13:49;;;;;;;4.13;3.42;;;;;;;;;;6177030;23;19997;-85
2024/01/31 13:16:14;;;;;;;6.07;5.47;;;;;;;;;;6177581;23;20044;-85
2024/01/31 13:18:40;;;;;;;34.58;16.02;;;;;;;;;;6176632;23;20001;-86
2024/01/31 13:21:06;;;;;;;43.75;25.08;;;;;;;;;;6177514;23;20072;-87
2024/01/31 13:23:31;;;;;;;16.98;11.60;;;;;;;;;;6180117;23;20004;-85
2024/01/31 13:25:56;;;;;;;45.78;40.92;;;;;;;;;;6179899;23;20003;-88
2024/01/31 13:28:21;;;;;;;39.13;33.22;;;;;;;;;;6177764;23;20008;-87
2024/01/31 13:30:47;;;;;;;13.70;10.13;;;;;;;;;;6178759;23;20015;-85
2024/01/31 13:33:13;;;;;;;20.13;18.13;;;;;;;;;;6179887;23;20360;-85
2024/01/31 13:35:40;;;;;;;7.95;7.00;;;;;;;;;;6179863;23;19997;-85
2024/01/31 13:38:11;;;;;;;49.53;36.25;;;;;;;;;;6177993;23;20031;-86
2024/01/31 13:40:36;;;;;;;16.48;13.95;;;;;;;;;;6178394;23;20509;-85
2024/01/31 13:43:01;;;;;;;65.78;42.17;;;;;;;;;;6179754;23;20001;-85
2024/01/31 13:45:27;;;;;;;142.10;95.03;;;;;;;;;;6180026;23;20001;-85
2024/01/31 13:47:53;;;;;;;33.20;23.67;;;;;;;;;;6179450;23;19997;-85
2024/01/31 13:50:18;;;;;;;40.53;24.33;;;;;;;;;;6181063;23;20016;-84
2024/01/31 13:52:43;;;;;;;14.52;11.68;;;;;;;;;;6183671;23;19997;-85
2024/01/31 13:55:09;;;;;;;26.65;18.67;;;;;;;;;;6176977;23;20005;-85
2024/01/31 13:57:34;;;;;;;28.13;19.40;;;;;;;;;;6177713;23;20333;-86
2024/01/31 14:00:00;;;;;;;40.30;29.73;;;;;;;;;;6179592;23;20004;-84
2024/01/31 14:02:25;;;;;;;20.60;15.93;;;;;;;;;;6177295;23;20009;-85
2024/01/31 14:04:50;;;;;;;23.23;16.27;;;;;;;;;;6179671;23;20012;-85
2024/01/31 14:07:16;;;;;;;107.88;68.65;;;;;;;;;;6177205;23;20084;-85